Terminal Aerodrome Forecast
Issued by NWS San Angelo, TX

Home | Current Version | Previous Version | Text Only | Print | Product List | Glossary On
Versions: 1 2 3 4 5 6 7 8 9 10 11 12 13 14 15 16 17 18 19
730
FTUS44 KSJT 261919 AAA
TAFABI
TAF AMD
KABI 261919Z 2619/2718 22013KT P6SM BKN250
      TEMPO 2619/2620 22013G20KT
     FM262100 24010KT P6SM BKN250
     FM270000 VRB05KT P6SM BKN250
     FM270900 19010KT P6SM BKN250
     FM271500 24013G21KT P6SM BKN250=

USA.gov is the U.S. government's official web portal to all federal, state and local government web resources and services.